Time;durP1;ratioP1;P1;durP2;ratioP2;P2;SDS_P1;SDS_P2;PMS_P1;PMS_P2;Temp;Humidity;BMP_temperature;BMP_pressure;BME280_temperature;BME280_humidity;BME280_pressure;Samples;Min_cycle;Max_cycle;Signal;HPM_P1;HPM_P2
2021/04/20 00:01:37;;;;;;;2.80;1.73;;;6.90;34.70;;;;;;4347138;32;20156;-58
2021/04/20 00:05:04;;;;;;;4.68;1.98;;;7.00;35.10;;;;;;4361712;32;20085;-59
2021/04/20 00:08:30;;;;;;;4.22;1.80;;;6.90;34.80;;;;;;4361926;32;20062;-58
2021/04/20 00:10:56;;;;;;;3.30;1.80;;;6.90;35.00;;;;;;4347940;32;20066;-58
2021/04/20 00:13:22;;;;;;;2.67;1.70;;;6.80;35.00;;;;;;4347157;32;20075;-59
2021/04/20 00:15:49;;;;;;;8.68;2.58;;;6.90;35.40;;;;;;4346651;32;20137;-58
2021/04/20 00:18:15;;;;;;;3.72;1.48;;;6.80;35.70;;;;;;4322815;32;20074;-59
2021/04/20 00:20:41;;;;;;;2.80;1.65;;;6.80;35.30;;;;;;4334619;32;20089;-59
2021/04/20 00:23:07;;;;;;;4.12;1.92;;;6.80;35.50;;;;;;4336171;32;20163;-59
2021/04/20 00:25:34;;;;;;;4.62;1.95;;;6.80;35.20;;;;;;4325638;32;20087;-58
2021/04/20 00:28:01;;;;;;;4.70;1.80;;;6.80;35.10;;;;;;4337533;32;20465;-59
2021/04/20 00:30:27;;;;;;;5.82;1.73;;;6.80;35.60;;;;;;4325576;32;20108;-58
2021/04/20 00:32:53;;;;;;;3.80;1.50;;;6.80;35.50;;;;;;4337667;32;20077;-59
2021/04/20 00:35:19;;;;;;;3.08;1.98;;;6.70;35.80;;;;;;4313001;32;20078;-59
2021/04/20 00:37:45;;;;;;;1.70;1.33;;;6.70;36.40;;;;;;4337827;32;20530;-59
2021/04/20 00:40:14;;;;;;;6.22;1.85;;;6.60;36.20;;;;;;4325570;32;20081;-57
2021/04/20 00:42:56;;;;;;;2.92;1.92;;;6.70;37.40;;;;;;4350046;32;20150;-59
2021/04/20 00:45:25;;;;;;;2.67;1.60;;;6.70;36.00;;;;;;4349927;32;20097;-58
2021/04/20 00:47:52;;;;;;;5.22;2.10;;;6.60;36.40;;;;;;4337490;32;20075;-59
2021/04/20 00:50:21;;;;;;;2.42;1.85;;;6.60;36.40;;;;;;4349613;32;20667;-58
2021/04/20 00:52:47;;;;;;;3.10;1.75;;;6.60;36.40;;;;;;4337652;32;20070;-58
2021/04/20 00:55:14;;;;;;;5.20;3.05;;;6.60;36.40;;;;;;4337198;32;20154;-59
2021/04/20 00:57:40;;;;;;;3.92;1.75;;;6.60;36.40;;;;;;4349305;32;20157;-59
2021/04/20 01:00:19;;;;;;;2.53;1.70;;;6.50;36.90;;;;;;4336944;32;20082;-60
2021/04/20 01:02:45;;;;;;;3.83;1.85;;;6.50;36.70;;;;;;4337145;32;20154;-58
2021/04/20 01:05:15;;;;;;;4.10;1.90;;;6.50;36.60;;;;;;4324687;32;20469;-58
2021/04/20 01:07:42;;;;;;;4.10;1.55;;;6.50;37.00;;;;;;4334243;33;20177;-58
2021/04/20 01:10:10;;;;;;;6.30;1.87;;;6.50;36.40;;;;;;4322186;33;20066;-57
2021/04/20 01:12:37;;;;;;;1.90;1.17;;;6.50;36.40;;;;;;4321929;33;20063;-58
2021/04/20 01:15:05;;;;;;;3.45;1.50;;;6.40;35.60;;;;;;4322105;33;20106;-59
2021/04/20 01:17:31;;;;;;;3.47;2.03;;;6.50;36.50;;;;;;4321876;33;20443;-58
2021/04/20 01:19:59;;;;;;;3.45;1.62;;;6.50;36.40;;;;;;4322977;33;20090;-58
2021/04/20 01:22:31;;;;;;;3.00;1.60;;;6.50;36.30;;;;;;4322757;33;20137;-59
2021/04/20 01:24:57;;;;;;;2.50;1.27;;;6.50;36.30;;;;;;4322760;33;20071;-59
2021/04/20 01:27:24;;;;;;;5.15;1.73;;;6.40;36.30;;;;;;4322253;33;20168;-59
2021/04/20 01:29:54;;;;;;;5.20;1.40;;;6.40;36.20;;;;;;4322136;33;20089;-59
2021/04/20 01:32:20;;;;;;;2.87;1.60;;;6.40;36.00;;;;;;4322574;33;20497;-59
2021/04/20 01:34:46;;;;;;;2.62;1.50;;;6.40;35.60;;;;;;4327172;32;20070;-59
2021/04/20 01:37:12;;;;;;;3.10;1.70;;;6.30;36.20;;;;;;4342717;33;20257;-59
2021/04/20 01:39:39;;;;;;;1.98;1.00;;;6.30;35.50;;;;;;4323007;33;20078;-60
2021/04/20 01:42:05;;;;;;;3.35;1.50;;;6.20;35.60;;;;;;4322682;33;20078;-58
2021/04/20 01:44:31;;;;;;;3.47;1.55;;;6.20;35.60;;;;;;4309730;33;20075;-58
2021/04/20 01:46:58;;;;;;;2.10;1.50;;;6.30;35.90;;;;;;4297629;33;20075;-58
2021/04/20 01:49:24;;;;;;;1.70;1.08;;;6.30;35.30;;;;;;4297746;33;20066;-59
2021/04/20 01:51:52;;;;;;;1.60;1.35;;;6.10;34.90;;;;;;4334231;33;20071;-60
2021/04/20 01:54:19;;;;;;;3.85;2.20;;;6.20;35.70;;;;;;4309925;33;20090;-63
2021/04/20 01:56:46;;;;;;;4.12;1.35;;;6.20;35.20;;;;;;4334217;33;20102;-58
2021/04/20 01:59:13;;;;;;;2.37;1.27;;;6.20;35.20;;;;;;4310432;33;20071;-59
2021/04/20 02:01:39;;;;;;;2.80;1.50;;;6.20;35.30;;;;;;4333696;33;20454;-58
2021/04/20 02:04:05;;;;;;;2.30;1.40;;;6.00;35.20;;;;;;4297583;33;20079;-58
2021/04/20 02:06:31;;;;;;;2.17;1.23;;;6.10;34.90;;;;;;4337534;33;20060;-58
2021/04/20 02:08:58;;;;;;;3.03;1.45;;;6.10;35.20;;;;;;4321390;33;20517;-59
2021/04/20 02:11:24;;;;;;;4.45;1.65;;;6.00;34.30;;;;;;4321369;33;20514;-58
2021/04/20 02:13:50;;;;;;;5.03;1.40;;;6.00;34.40;;;;;;4324161;33;20196;-59
2021/04/20 02:16:17;;;;;;;1.62;1.23;;;5.90;34.60;;;;;;4333213;33;20501;-58
2021/04/20 02:18:45;;;;;;;4.70;1.50;;;5.90;34.10;;;;;;4321524;33;20093;-58
2021/04/20 02:21:16;;;;;;;2.72;1.15;;;6.00;34.60;;;;;;4309381;33;20560;-59
2021/04/20 02:23:42;;;;;;;1.87;1.15;;;5.90;34.10;;;;;;4308801;33;20601;-58
2021/04/20 02:26:12;;;;;;;4.75;1.48;;;5.90;34.40;;;;;;4321486;33;20504;-58
2021/04/20 02:28:39;;;;;;;3.08;1.15;;;5.90;34.50;;;;;;4321550;33;20161;-59
2021/04/20 02:31:07;;;;;;;3.25;1.20;;;5.90;34.30;;;;;;4333475;33;20071;-58
2021/04/20 02:33:33;;;;;;;1.02;0.90;;;5.90;33.80;;;;;;4333602;33;20082;-58
2021/04/20 02:35:59;;;;;;;1.95;1.02;;;5.80;33.90;;;;;;4343659;33;20097;-57
2021/04/20 02:38:26;;;;;;;2.58;1.37;;;5.80;34.30;;;;;;4321130;33;20202;-57
2021/04/20 02:40:55;;;;;;;4.40;1.08;;;5.70;34.50;;;;;;4333173;33;20067;-58
2021/04/20 02:43:22;;;;;;;1.42;0.80;;;5.80;34.60;;;;;;4345450;33;20442;-58
2021/04/20 02:45:53;;;;;;;1.15;1.05;;;5.80;34.30;;;;;;4308791;33;20075;-59
2021/04/20 02:48:20;;;;;;;1.12;0.85;;;5.70;34.50;;;;;;4335216;33;20105;-58
2021/04/20 02:50:46;;;;;;;1.62;0.93;;;5.60;34.40;;;;;;4338220;33;20063;-56
2021/04/20 02:53:16;;;;;;;5.50;1.77;;;5.70;34.40;;;;;;4341286;33;20090;-58
2021/04/20 02:55:43;;;;;;;2.70;1.25;;;5.70;33.90;;;;;;4328348;33;20078;-58
2021/04/20 02:58:28;;;;;;;2.67;0.90;;;5.70;33.60;;;;;;4353582;33;20073;-60
2021/04/20 03:01:04;;;;;;;2.35;1.35;;;5.80;33.90;;;;;;4324958;33;20142;-58
2021/04/20 03:03:36;;;;;;;1.70;1.30;;;5.70;33.50;;;;;;4333817;33;20089;-58
2021/04/20 03:06:04;;;;;;;2.65;1.33;;;5.90;33.80;;;;;;4332720;33;20185;-57
2021/04/20 03:08:30;;;;;;;2.75;1.37;;;5.80;33.80;;;;;;4333236;33;20516;-58
2021/04/20 03:11:14;;;;;;;3.78;1.50;;;5.90;33.50;;;;;;4333380;33;20075;-58
2021/04/20 03:13:44;;;;;;;4.55;1.27;;;5.80;34.10;;;;;;4334206;33;20155;-59
2021/04/20 03:16:12;;;;;;;2.55;1.20;;;5.80;33.70;;;;;;4333173;33;20074;-57
2021/04/20 03:18:38;;;;;;;4.62;1.30;;;5.70;34.20;;;;;;4320865;33;20056;-59
2021/04/20 03:21:06;;;;;;;3.95;1.25;;;5.80;33.90;;;;;;4320639;33;20063;-58
2021/04/20 03:23:33;;;;;;;3.95;1.23;;;5.80;35.20;;;;;;4321064;33;20090;-57
2021/04/20 03:26:00;;;;;;;1.85;1.45;;;5.70;33.30;;;;;;4333177;33;20059;-59
2021/04/20 03:28:27;;;;;;;2.45;1.00;;;5.70;33.60;;;;;;4332984;33;20158;-59
2021/04/20 03:30:54;;;;;;;5.22;1.33;;;5.70;34.00;;;;;;4332947;33;20623;-58
2021/04/20 03:33:29;;;;;;;5.00;1.70;;;5.70;34.10;;;;;;4320365;33;20453;-58
2021/04/20 03:36:06;;;;;;;8.73;1.60;;;5.80;33.80;;;;;;4332802;33;20087;-59
2021/04/20 03:38:55;;;;;;;3.30;1.42;;;5.80;34.10;;;;;;4309600;33;20088;-60
2021/04/20 03:41:27;;;;;;;4.05;1.48;;;5.80;34.10;;;;;;4338112;33;20071;-58
2021/04/20 03:43:57;;;;;;;3.55;1.33;;;5.80;34.20;;;;;;4320842;33;20081;-58
2021/04/20 03:46:31;;;;;;;3.83;1.20;;;5.80;33.70;;;;;;4320387;33;20071;-58
2021/04/20 03:49:24;;;;;;;3.33;1.50;;;6.20;33.20;;;;;;4321578;33;20067;-58
2021/04/20 03:51:52;;;;;;;2.28;1.37;;;6.10;33.40;;;;;;4332951;33;20502;-58
2021/04/20 03:54:18;;;;;;;2.60;1.37;;;6.10;33.60;;;;;;4320582;33;20094;-58
2021/04/20 03:56:46;;;;;;;1.10;0.68;;;6.00;33.20;;;;;;4320407;33;20151;-58
2021/04/20 03:59:13;;;;;;;2.90;1.60;;;6.10;33.00;;;;;;4334671;33;20183;-58
2021/04/20 04:01:46;;;;;;;2.25;1.70;;;6.10;33.10;;;;;;4311403;33;20074;-59
2021/04/20 04:04:23;;;;;;;1.50;1.10;;;6.40;32.40;;;;;;4310876;33;20571;-58
2021/04/20 04:06:50;;;;;;;3.17;1.30;;;6.30;32.60;;;;;;4332177;32;20584;-58
2021/04/20 04:09:18;;;;;;;6.18;1.90;;;6.70;32.00;;;;;;4325488;32;20085;-58
2021/04/20 04:12:17;;;;;;;5.35;1.42;;;6.80;32.40;;;;;;4337946;32;20073;-58
2021/04/20 04:14:43;;;;;;;4.55;1.85;;;6.50;31.90;;;;;;4325239;32;20098;-59
2021/04/20 04:17:12;;;;;;;4.90;1.70;;;6.50;32.60;;;;;;4322562;33;20175;-58
2021/04/20 04:19:44;;;;;;;3.10;1.70;;;6.80;32.20;;;;;;4335658;33;20066;-58
2021/04/20 04:22:33;;;;;;;3.55;1.10;;;6.60;32.20;;;;;;4335361;33;20501;-59
2021/04/20 04:25:00;;;;;;;3.90;1.80;;;6.60;31.90;;;;;;4347345;33;20083;-58
2021/04/20 04:27:29;;;;;;;3.72;1.92;;;6.80;32.00;;;;;;4335732;33;20081;-59
2021/04/20 04:29:57;;;;;;;2.08;1.55;;;6.60;32.70;;;;;;4335622;33;20157;-58
2021/04/20 04:32:23;;;;;;;4.43;0.98;;;6.90;32.00;;;;;;4322705;33;20508;-58
2021/04/20 04:34:50;;;;;;;3.65;1.98;;;6.70;32.30;;;;;;4347528;33;20579;-59
2021/04/20 04:37:16;;;;;;;4.60;1.90;;;6.90;32.00;;;;;;4346969;33;20087;-58
2021/04/20 04:39:43;;;;;;;5.05;2.20;;;7.00;32.00;;;;;;4323092;33;20449;-59
2021/04/20 04:42:09;;;;;;;6.80;2.00;;;7.00;32.60;;;;;;4334855;33;20159;-58
2021/04/20 04:44:36;;;;;;;7.18;2.20;;;7.00;32.00;;;;;;4334409;33;20114;-58
2021/04/20 04:47:02;;;;;;;5.87;1.70;;;7.30;31.80;;;;;;4334564;33;20445;-58
2021/04/20 04:49:30;;;;;;;4.60;2.03;;;7.00;32.50;;;;;;4334774;33;20098;-58
2021/04/20 04:51:56;;;;;;;3.95;2.17;;;6.90;31.90;;;;;;4334674;33;20456;-58
2021/04/20 04:54:22;;;;;;;3.55;1.90;;;7.00;32.30;;;;;;4322331;33;20450;-58
2021/04/20 04:56:48;;;;;;;5.47;2.10;;;6.70;32.30;;;;;;4322434;33;20090;-59
2021/04/20 04:59:18;;;;;;;3.62;1.90;;;6.70;33.50;;;;;;4335072;33;20086;-59
2021/04/20 05:01:45;;;;;;;9.02;2.05;;;7.30;32.10;;;;;;4334967;33;20070;-59
2021/04/20 05:04:13;;;;;;;8.15;1.87;;;7.10;31.30;;;;;;4322740;33;20070;-59
2021/04/20 05:06:47;;;;;;;6.30;1.90;;;7.30;32.30;;;;;;4320244;33;20079;-58
2021/04/20 05:09:15;;;;;;;5.90;1.95;;;7.30;32.30;;;;;;4321175;33;20079;-59
2021/04/20 05:11:44;;;;;;;3.58;1.62;;;7.40;32.50;;;;;;4308236;33;20079;-58
2021/04/20 05:14:14;;;;;;;3.50;2.10;;;7.00;32.40;;;;;;4339536;33;20145;-58
2021/04/20 05:16:44;;;;;;;1.83;1.05;;;7.30;32.90;;;;;;4334146;33;20071;-59
2021/04/20 05:19:11;;;;;;;3.42;1.42;;;7.60;31.60;;;;;;4334970;33;20097;-59
2021/04/20 05:21:40;;;;;;;4.28;1.98;;;7.70;31.50;;;;;;4334956;33;20073;-60
2021/04/20 05:24:07;;;;;;;4.25;2.85;;;7.80;30.60;;;;;;4348250;33;20063;-58
2021/04/20 05:26:33;;;;;;;3.12;1.98;;;7.90;31.60;;;;;;4335549;33;20157;-58
2021/04/20 05:29:03;;;;;;;4.47;1.77;;;7.60;30.60;;;;;;4348579;32;20075;-58
2021/04/20 05:31:30;;;;;;;2.67;1.77;;;7.60;31.70;;;;;;4346116;33;20155;-59
2021/04/20 05:33:56;;;;;;;5.20;1.87;;;7.90;30.90;;;;;;4333703;33;20065;-58
2021/04/20 05:36:23;;;;;;;17.87;2.05;;;7.90;30.10;;;;;;4319197;33;20074;-58
2021/04/20 05:39:03;;;;;;;3.08;1.58;;;8.00;30.20;;;;;;4307459;33;20218;-57
2021/04/20 05:41:32;;;;;;;4.37;1.73;;;8.10;30.00;;;;;;4319611;33;20458;-58
2021/04/20 05:43:59;;;;;;;2.60;1.12;;;8.30;30.30;;;;;;4308064;33;20158;-57
2021/04/20 05:46:25;;;;;;;5.85;2.17;;;8.10;29.60;;;;;;4295755;33;20567;-57
2021/04/20 05:48:52;;;;;;;4.03;1.75;;;8.40;29.50;;;;;;4298390;33;20130;-58
2021/04/20 05:51:20;;;;;;;3.08;1.85;;;8.50;29.70;;;;;;4314051;33;20067;-57
2021/04/20 05:53:47;;;;;;;3.10;1.25;;;8.10;29.90;;;;;;4320747;33;20071;-59
2021/04/20 05:56:17;;;;;;;3.60;2.03;;;8.50;29.30;;;;;;4319277;33;20079;-61
2021/04/20 05:58:44;;;;;;;4.95;1.55;;;9.10;28.00;;;;;;4330153;33;20122;-60
2021/04/20 06:01:10;;;;;;;2.05;1.70;;;8.20;28.70;;;;;;4317346;33;20094;-60
2021/04/20 06:03:40;;;;;;;4.30;1.05;;;8.80;28.30;;;;;;4305392;33;20105;-58
2021/04/20 06:06:06;;;;;;;1.77;1.33;;;8.70;27.70;;;;;;4322838;33;20091;-57
2021/04/20 06:08:36;;;;;;;4.87;1.67;;;9.30;28.40;;;;;;4307796;33;20216;-59
2021/04/20 06:11:07;;;;;;;2.28;0.98;;;8.50;28.90;;;;;;4327790;33;20063;-59
2021/04/20 06:13:34;;;;;;;2.15;1.25;;;8.60;28.60;;;;;;4322792;33;20078;-57
2021/04/20 06:16:00;;;;;;;4.53;1.80;;;8.30;28.80;;;;;;4332915;33;20092;-59
2021/04/20 06:19:27;;;;;;;3.10;1.50;;;8.70;29.00;;;;;;4344150;33;20635;-59
2021/04/20 06:22:55;;;;;;;4.43;1.80;;;9.00;28.10;;;;;;4347238;33;20070;-59
2021/04/20 06:26:25;;;;;;;5.40;2.05;;;8.90;28.50;;;;;;4338022;33;20156;-61
2021/04/20 06:29:12;;;;;;;1.30;0.88;;;9.50;27.80;;;;;;4338757;32;20106;-59
2021/04/20 06:31:38;;;;;;;4.97;2.03;;;9.50;27.30;;;;;;4320992;33;20134;-59
2021/04/20 06:34:05;;;;;;;4.28;1.62;;;9.20;27.50;;;;;;4317139;33;20730;-58
2021/04/20 06:36:32;;;;;;;1.20;1.10;;;9.40;27.40;;;;;;4317879;33;20082;-61
2021/04/20 06:38:58;;;;;;;3.30;1.90;;;9.00;28.10;;;;;;4320543;33;20071;-60
2021/04/20 06:41:27;;;;;;;3.80;1.70;;;9.50;27.40;;;;;;4322062;33;20130;-58
2021/04/20 06:44:30;;;;;;;6.18;1.50;;;9.40;27.40;;;;;;4329817;32;20090;-60
2021/04/20 06:47:15;;;;;;;5.45;1.80;;;9.50;27.40;;;;;;4321886;33;20075;-60
2021/04/20 06:50:14;;;;;;;4.15;1.80;;;9.70;27.20;;;;;;4328364;33;20094;-61
2021/04/20 06:52:58;;;;;;;1.10;0.85;;;9.90;26.60;;;;;;4317747;33;20446;-60
2021/04/20 06:55:54;;;;;;;1.52;0.70;;;9.60;26.70;;;;;;4316418;33;20486;-60
2021/04/20 06:58:48;;;;;;;5.07;2.00;;;9.30;26.40;;;;;;4343402;33;20052;-60
2021/04/20 07:01:35;;;;;;;8.55;1.95;;;10.10;26.20;;;;;;4313492;32;20532;-62
2021/04/20 07:04:26;;;;;;;3.20;1.40;;;10.40;26.20;;;;;;4307025;33;20075;-60
2021/04/20 07:07:27;;;;;;;2.45;1.75;;;10.00;25.70;;;;;;4320037;33;20078;-61
2021/04/20 07:10:39;;;;;;;3.58;1.67;;;10.90;25.60;;;;;;4318236;33;20153;-60
2021/04/20 07:13:16;;;;;;;6.15;1.60;;;10.90;24.70;;;;;;4334463;33;20564;-61
2021/04/20 07:15:52;;;;;;;3.33;1.30;;;11.10;25.20;;;;;;4320969;32;20109;-61
2021/04/20 07:19:07;;;;;;;4.15;1.65;;;10.90;24.50;;;;;;4325212;32;20505;-60
2021/04/20 07:22:16;;;;;;;5.65;2.00;;;10.60;25.10;;;;;;4352696;32;20179;-60
2021/04/20 07:25:30;;;;;;;5.00;1.80;;;10.80;25.40;;;;;;4346761;32;20165;-63
2021/04/20 07:28:21;;;;;;;3.45;1.80;;;10.90;25.20;;;;;;4318786;32;20118;-58
2021/04/20 07:31:38;;;;;;;6.45;2.65;;;10.60;25.10;;;;;;4332762;32;20062;-59
2021/04/20 07:34:39;;;;;;;3.35;1.60;;;10.70;24.90;;;;;;4330826;32;20066;-59
2021/04/20 07:37:42;;;;;;;2.85;1.35;;;10.40;25.60;;;;;;4337877;33;20074;-60
2021/04/20 07:40:32;;;;;;;3.35;1.10;;;10.60;25.30;;;;;;4350778;32;20517;-62
2021/04/20 07:43:32;;;;;;;3.65;1.50;;;11.00;24.30;;;;;;4336259;33;20066;-60
2021/04/20 07:46:08;;;;;;;3.05;1.35;;;10.60;25.30;;;;;;4331527;32;20085;-60
2021/04/20 07:49:11;;;;;;;4.93;1.65;;;10.80;24.80;;;;;;4327089;32;20079;-60
2021/04/20 07:52:04;;;;;;;4.22;1.80;;;10.80;25.20;;;;;;4351418;32;20138;-60
2021/04/20 07:54:45;;;;;;;5.03;1.65;;;10.70;24.90;;;;;;4338966;32;20160;-60
2021/04/20 07:57:25;;;;;;;7.00;1.85;;;10.50;25.10;;;;;;4338589;32;20090;-60
2021/04/20 07:59:58;;;;;;;4.40;2.05;;;10.90;25.30;;;;;;4351215;32;20073;-59
2021/04/20 08:02:42;;;;;;;3.40;2.00;;;11.00;24.40;;;;;;4339389;32;20055;-61
2021/04/20 08:05:28;;;;;;;2.95;1.58;;;11.50;24.20;;;;;;4356456;32;20078;-60
2021/04/20 08:07:54;;;;;;;3.75;1.77;;;12.20;23.90;;;;;;4361054;32;20062;-59
2021/04/20 08:10:30;;;;;;;4.47;1.52;;;12.50;23.10;;;;;;4360030;32;20501;-62
2021/04/20 08:13:10;;;;;;;2.80;2.08;;;12.50;23.50;;;;;;4337773;32;20465;-59
2021/04/20 08:15:44;;;;;;;7.28;1.95;;;12.10;23.50;;;;;;4331408;33;20505;-64
2021/04/20 08:18:17;;;;;;;1.37;1.27;;;11.40;24.30;;;;;;4300330;33;20071;-61
2021/04/20 08:20:44;;;;;;;3.45;1.40;;;11.40;24.90;;;;;;4311239;32;20070;-60
2021/04/20 08:23:11;;;;;;;4.05;1.20;;;11.80;23.80;;;;;;4319501;33;20078;-58
2021/04/20 08:25:44;;;;;;;1.62;1.20;;;11.50;23.30;;;;;;4332995;33;20087;-58
2021/04/20 08:28:35;;;;;;;3.55;1.55;;;10.80;24.10;;;;;;4312234;33;20098;-60
2021/04/20 08:31:31;;;;;;;4.28;1.45;;;11.10;23.80;;;;;;4340891;32;20136;-62
2021/04/20 08:34:21;;;;;;;9.40;2.05;;;11.50;24.00;;;;;;4332959;32;20058;-57
2021/04/20 08:37:03;;;;;;;3.70;1.33;;;10.90;24.10;;;;;;4348867;33;20082;-58
2021/04/20 08:40:04;;;;;;;5.87;1.62;;;11.40;24.50;;;;;;4323265;33;20083;-60
2021/04/20 08:43:02;;;;;;;7.62;2.55;;;10.80;23.80;;;;;;4335638;33;20180;-59
2021/04/20 08:46:00;;;;;;;5.62;1.40;;;11.20;24.00;;;;;;4324720;33;20138;-59
2021/04/20 08:48:49;;;;;;;5.75;2.08;;;11.60;23.70;;;;;;4320348;32;20494;-60
2021/04/20 08:51:43;;;;;;;52.10;6.35;;;11.70;24.10;;;;;;4355484;32;20473;-58
2021/04/20 08:54:20;;;;;;;6.68;1.27;;;11.00;23.90;;;;;;4339954;32;20501;-61
2021/04/20 08:57:44;;;;;;;11.12;1.67;;;11.50;24.40;;;;;;4325514;33;20083;-62
2021/04/20 09:00:57;;;;;;;8.85;2.12;;;11.80;24.30;;;;;;4347983;32;20063;-60
2021/04/20 09:03:48;;;;;;;8.27;1.90;;;12.50;22.20;;;;;;4348953;32;20082;-60
2021/04/20 09:06:34;;;;;;;6.93;1.90;;;12.40;22.70;;;;;;4335316;32;20166;-59
2021/04/20 09:09:05;;;;;;;3.90;1.43;;;12.60;22.50;;;;;;4314373;32;20082;-60
2021/04/20 09:11:37;;;;;;;3.95;1.50;;;12.40;22.80;;;;;;4311010;33;20218;-59
2021/04/20 09:14:08;;;;;;;3.37;1.80;;;12.70;22.80;;;;;;4327718;33;20156;-57
2021/04/20 09:16:59;;;;;;;4.93;1.85;;;12.80;23.10;;;;;;4331932;33;20155;-57
2021/04/20 09:19:56;;;;;;;7.15;1.70;;;12.30;23.70;;;;;;4335329;32;20110;-59
2021/04/20 09:22:53;;;;;;;7.57;1.73;;;12.90;23.30;;;;;;4325613;33;20139;-57
2021/04/20 09:25:48;;;;;;;5.43;1.70;;;12.80;23.50;;;;;;4337225;33;20090;-57
2021/04/20 09:28:39;;;;;;;2.28;1.37;;;12.20;22.50;;;;;;4327710;32;20058;-60
2021/04/20 09:31:17;;;;;;;6.70;1.48;;;12.20;22.60;;;;;;4333396;32;20069;-58
2021/04/20 09:33:56;;;;;;;8.18;2.33;;;12.60;22.50;;;;;;4321834;32;20473;-57
2021/04/20 09:37:23;;;;;;;7.10;1.80;;;12.70;21.70;;;;;;4309763;33;20078;-58
2021/04/20 09:40:54;;;;;;;6.43;1.73;;;12.80;22.00;;;;;;4362881;32;20488;-57
2021/04/20 09:46:34;;;;;;;2.60;1.53;;;12.60;22.10;;;;;;3840687;37;20054;-59
2021/04/20 09:49:29;;;;;;;2.25;1.48;;;12.60;22.20;;;;;;4401143;32;20252;-58
2021/04/20 09:52:01;;;;;;;3.45;1.70;;;13.30;21.50;;;;;;4396170;32;20075;-57
2021/04/20 09:54:30;;;;;;;2.83;1.70;;;13.10;21.60;;;;;;4389941;32;20073;-57
2021/04/20 09:56:59;;;;;;;3.85;1.92;;;13.50;21.60;;;;;;4389073;32;20070;-58
2021/04/20 09:59:29;;;;;;;5.07;1.80;;;12.70;21.20;;;;;;4381236;32;20146;-58
2021/04/20 10:01:58;;;;;;;5.87;1.75;;;12.60;21.90;;;;;;4365956;32;20062;-58
2021/04/20 10:04:40;;;;;;;10.38;3.05;;;13.00;22.10;;;;;;4392777;32;20536;-58
2021/04/20 10:07:38;;;;;;;4.32;1.87;;;12.90;22.10;;;;;;4403699;32;20154;-59
2021/04/20 10:10:23;;;;;;;3.12;1.58;;;12.80;22.00;;;;;;4392263;32;20215;-57
2021/04/20 10:13:17;;;;;;;2.50;1.77;;;12.70;21.60;;;;;;4405031;32;20127;-58
2021/04/20 10:16:03;;;;;;;4.93;1.77;;;12.60;21.90;;;;;;4380874;32;20435;-58
2021/04/20 10:19:00;;;;;;;5.80;1.70;;;12.70;21.40;;;;;;4391849;32;20585;-58
2021/04/20 10:21:45;;;;;;;2.92;1.90;;;13.00;22.30;;;;;;4395813;32;20466;-58
2021/04/20 10:24:23;;;;;;;4.72;1.73;;;13.10;21.00;;;;;;4386042;32;20116;-57
2021/04/20 10:27:10;;;;;;;4.12;1.60;;;12.50;21.50;;;;;;4404317;32;20089;-59
2021/04/20 10:29:58;;;;;;;4.37;2.00;;;13.10;21.60;;;;;;4409294;32;20068;-58
2021/04/20 10:32:49;;;;;;;4.82;1.62;;;13.10;21.10;;;;;;4374465;32;20078;-58
2021/04/20 10:35:31;;;;;;;2.67;1.55;;;12.70;21.90;;;;;;4383361;32;20058;-59
2021/04/20 10:38:00;;;;;;;6.45;1.98;;;13.50;20.70;;;;;;4375405;32;20081;-57
2021/04/20 10:40:36;;;;;;;6.05;1.70;;;13.00;21.10;;;;;;4371937;32;20074;-56
2021/04/20 10:43:16;;;;;;;2.60;1.60;;;13.40;20.90;;;;;;4378291;32;20158;-57
2021/04/20 10:45:43;;;;;;;3.12;1.55;;;13.90;21.00;;;;;;4391093;32;20066;-57
2021/04/20 10:48:09;;;;;;;2.92;1.48;;;14.10;20.10;;;;;;4374819;32;20121;-57
2021/04/20 10:50:38;;;;;;;5.47;2.05;;;14.30;20.10;;;;;;4363704;32;20086;-58
2021/04/20 10:53:30;;;;;;;6.95;1.80;;;13.90;20.10;;;;;;4374420;32;20512;-60
2021/04/20 10:56:12;;;;;;;3.47;1.67;;;13.00;21.30;;;;;;4373823;32;20166;-60
2021/04/20 10:58:45;;;;;;;8.40;2.20;;;13.40;21.00;;;;;;4374056;32;20069;-61
2021/04/20 11:01:18;;;;;;;5.40;2.08;;;13.80;20.80;;;;;;4365044;32;20068;-60
2021/04/20 11:03:46;;;;;;;2.58;1.67;;;13.80;20.50;;;;;;4364329;32;20549;-60
2021/04/20 11:07:11;;;;;;;4.12;1.92;;;13.90;20.60;;;;;;4378256;32;20101;-60
2021/04/20 11:09:38;;;;;;;2.90;1.87;;;13.70;20.90;;;;;;4390947;32;20089;-60
2021/04/20 11:12:16;;;;;;;4.55;1.85;;;13.90;20.30;;;;;;4371421;32;20074;-62
2021/04/20 11:14:47;;;;;;;7.35;2.22;;;14.00;20.80;;;;;;4353370;32;20086;-59
2021/04/20 11:17:45;;;;;;;3.90;1.80;;;13.40;20.60;;;;;;4381917;32;20090;-61
2021/04/20 11:20:43;;;;;;;8.27;2.05;;;13.80;21.10;;;;;;4379068;32;20078;-59
2021/04/20 11:23:09;;;;;;;5.72;2.03;;;13.30;21.60;;;;;;4350717;32;20159;-61
2021/04/20 11:25:55;;;;;;;6.55;2.47;;;13.60;21.20;;;;;;4370011;32;20895;-62
2021/04/20 11:28:52;;;;;;;5.10;1.90;;;13.30;21.00;;;;;;4386338;32;20481;-60
2021/04/20 11:31:34;;;;;;;2.05;1.08;;;12.70;21.20;;;;;;4376613;32;20158;-57
2021/04/20 11:34:24;;;;;;;4.32;1.70;;;12.80;21.60;;;;;;4363843;32;20070;-61
2021/04/20 11:37:11;;;;;;;3.85;2.10;;;13.20;21.10;;;;;;4363164;32;20069;-60
2021/04/20 11:39:41;;;;;;;;;;;13.60;21.10;;;;;;4370040;32;20112;-63
2021/04/20 11:42:27;;;;;;;3.15;2.20;;;13.60;22.00;;;;;;4386527;32;20066;-61
2021/04/20 11:44:58;;;;;;;5.65;2.00;;;14.30;20.20;;;;;;4381936;32;20070;-59
2021/04/20 11:47:25;;;;;;;1.75;1.40;;;14.10;20.30;;;;;;4362094;32;20109;-59
2021/04/20 11:50:09;;;;;;;9.07;2.05;;;13.70;20.70;;;;;;4361578;32;20184;-62
2021/04/20 11:52:35;;;;;;;2.83;1.98;;;14.30;20.30;;;;;;4376626;32;20066;-60
2021/04/20 11:55:06;;;;;;;5.72;1.95;;;13.90;20.60;;;;;;4362292;32;20067;-60
2021/04/20 11:57:34;;;;;;;2.92;1.77;;;13.20;21.50;;;;;;4363851;32;20072;-61
2021/04/20 12:00:04;;;;;;;3.90;1.58;;;13.60;21.50;;;;;;4361689;32;20062;-60
2021/04/20 12:02:30;;;;;;;3.47;1.60;;;13.80;20.90;;;;;;4362581;32;20082;-63
2021/04/20 12:05:02;;;;;;;2.22;1.62;;;13.90;21.10;;;;;;4374079;32;20073;-60
2021/04/20 12:07:29;;;;;;;1.83;1.48;;;14.00;20.90;;;;;;4369404;32;20086;-61
2021/04/20 12:09:55;;;;;;;3.37;2.00;;;14.00;20.80;;;;;;4369224;32;20074;-62
2021/04/20 12:12:29;;;;;;;1.27;1.17;;;14.20;21.00;;;;;;4363330;32;20096;-61
2021/04/20 12:14:57;;;;;;;1.70;1.40;;;13.80;20.60;;;;;;4375199;32;20080;-59
2021/04/20 12:17:31;;;;;;;3.03;1.60;;;13.60;21.60;;;;;;4359821;32;20062;-61
2021/04/20 12:19:59;;;;;;;2.90;1.87;;;13.90;21.00;;;;;;4370866;32;20097;-62
2021/04/20 12:22:26;;;;;;;5.93;2.08;;;13.90;20.70;;;;;;4361235;32;20105;-62
2021/04/20 12:24:52;;;;;;;5.53;2.15;;;14.00;20.80;;;;;;4366815;32;20181;-58
2021/04/20 12:27:26;;;;;;;5.40;1.70;;;13.70;20.80;;;;;;4378224;32;20503;-59
2021/04/20 12:29:53;;;;;;;5.32;1.90;;;13.80;21.10;;;;;;4385170;32;20162;-57
2021/04/20 12:32:21;;;;;;;4.72;1.92;;;14.50;20.70;;;;;;4362670;32;20061;-59
2021/04/20 12:34:58;;;;;;;6.18;2.00;;;14.70;20.60;;;;;;4368819;32;20163;-59
2021/04/20 12:37:27;;;;;;;3.67;2.35;;;14.30;21.40;;;;;;4372635;32;20081;-58
2021/04/20 12:39:58;;;;;;;3.75;1.48;;;14.10;20.80;;;;;;4373493;32;20669;-58
2021/04/20 12:42:29;;;;;;;5.60;2.17;;;13.50;21.70;;;;;;4374515;32;20102;-57
2021/04/20 12:44:57;;;;;;;8.02;2.00;;;13.90;21.50;;;;;;4363785;32;20104;-59
2021/04/20 12:47:31;;;;;;;6.80;2.20;;;14.50;21.00;;;;;;4372480;32;20239;-55
2021/04/20 12:49:58;;;;;;;8.13;2.00;;;14.30;20.80;;;;;;4380823;32;20174;-57
2021/04/20 12:52:26;;;;;;;4.50;1.62;;;13.70;21.10;;;;;;4360221;32;20637;-57
2021/04/20 12:55:03;;;;;;;8.15;2.50;;;14.10;21.20;;;;;;4373275;32;20076;-57
2021/04/20 12:57:35;;;;;;;2.33;1.77;;;13.80;21.20;;;;;;4372764;32;20083;-55
2021/04/20 13:00:09;;;;;;;3.03;1.87;;;13.20;21.70;;;;;;4372303;32;20117;-56
2021/04/20 13:02:39;;;;;;;5.47;1.62;;;13.30;21.50;;;;;;4386557;32;20053;-56
2021/04/20 13:05:07;;;;;;;3.65;1.80;;;12.90;21.60;;;;;;4360829;32;20163;-56
2021/04/20 13:07:34;;;;;;;5.00;1.90;;;13.30;21.70;;;;;;4346496;32;20528;-57
2021/04/20 13:10:03;;;;;;;5.22;2.20;;;14.10;21.40;;;;;;4373744;32;20078;-57
2021/04/20 13:12:30;;;;;;;3.00;1.98;;;14.20;21.30;;;;;;4373170;32;20194;-56
2021/04/20 13:15:05;;;;;;;5.82;2.03;;;14.00;21.00;;;;;;4344030;32;20085;-58
2021/04/20 13:17:33;;;;;;;4.35;1.35;;;13.80;21.40;;;;;;4361792;32;20078;-58
2021/04/20 13:20:25;;;;;;;6.35;1.80;;;13.40;21.20;;;;;;4374217;32;20121;-61
2021/04/20 13:22:51;;;;;;;6.18;2.08;;;13.50;21.20;;;;;;4352391;32;20081;-58
2021/04/20 13:25:19;;;;;;;5.55;1.90;;;14.00;21.20;;;;;;4384497;32;20181;-58
2021/04/20 13:27:50;;;;;;;3.92;1.73;;;14.30;21.80;;;;;;4372990;32;20107;-58
2021/04/20 13:30:22;;;;;;;3.55;1.87;;;14.10;21.40;;;;;;4373267;32;20081;-60
2021/04/20 13:32:55;;;;;;;3.15;1.98;;;14.30;21.50;;;;;;4361283;32;20169;-59
2021/04/20 13:35:21;;;;;;;8.98;2.80;;;14.10;20.90;;;;;;4361417;32;20057;-59
2021/04/20 13:37:51;;;;;;;6.07;2.35;;;13.80;21.40;;;;;;4382867;32;20070;-57
2021/04/20 13:40:24;;;;;;;4.65;1.95;;;14.20;21.30;;;;;;4360898;32;20121;-59
2021/04/20 13:42:59;;;;;;;2.92;1.85;;;14.10;20.50;;;;;;4382549;32;20056;-59